createdAt,value
2022-11-04T00:00:29.870Z,75.46
2022-11-04T00:01:33.846Z,75.85
2022-11-04T00:02:37.240Z,75.54
2022-11-04T00:03:40.160Z,74.91
2022-11-04T00:04:43.003Z,75.38
2022-11-04T00:05:44.799Z,76.06
2022-11-04T00:06:48.988Z,75.13
2022-11-04T00:08:09.183Z,75.88
2022-11-04T00:09:14.107Z,75.04
2022-11-04T00:10:15.940Z,75.81
2022-11-04T00:11:36.577Z,75.53
2022-11-04T00:12:38.472Z,75.48
2022-11-04T00:13:41.326Z,75.50
2022-11-04T00:14:43.659Z,75.14
2022-11-04T00:16:03.385Z,75.56
2022-11-04T00:17:23.536Z,75.22
2022-11-04T00:18:26.715Z,74.88
2022-11-04T00:19:50.017Z,74.34
2022-11-04T00:21:10.349Z,74.11
2022-11-04T00:22:27.323Z,74.53
2022-11-04T00:23:47.489Z,74.29
2022-11-04T00:25:19.241Z,73.91
2022-11-04T00:26:39.600Z,75.03
2022-11-04T00:27:59.875Z,74.57
2022-11-04T00:29:02.677Z,74.88
2022-11-04T00:30:08.151Z,74.17
2022-11-04T00:31:28.961Z,74.22
2022-11-04T00:32:50.282Z,74.57
2022-11-04T00:33:56.666Z,74.13
2022-11-04T00:34:58.691Z,75.01
2022-11-04T00:36:01.475Z,75.04
2022-11-04T00:37:03.297Z,75.13
2022-11-04T00:38:06.477Z,74.17
2022-11-04T00:39:08.565Z,74.77
2022-11-04T00:40:14.170Z,75.11
2022-11-04T00:41:28.768Z,74.44
2022-11-04T00:42:31.895Z,74.97
2022-11-04T00:43:33.716Z,75.59
2022-11-04T00:44:36.610Z,75.01
2022-11-04T00:45:40.094Z,74.69
2022-11-04T00:46:42.912Z,75.48
2022-11-04T00:47:44.723Z,75.54
2022-11-04T00:48:48.150Z,75.44
2022-11-04T00:49:52.123Z,75.62
2022-11-04T00:50:55.068Z,74.93
2022-11-04T00:51:56.908Z,75.50
2022-11-04T00:53:01.181Z,75.36
2022-11-04T00:54:03.157Z,75.81
2022-11-04T00:55:08.739Z,75.63
2022-11-04T00:56:11.790Z,76.49
2022-11-04T00:57:15.149Z,76.44
2022-11-04T00:58:17.933Z,75.52
2022-11-04T00:59:21.631Z,76.21
2022-11-04T01:00:24.638Z,76.13
2022-11-04T01:01:26.619Z,76.66
2022-11-04T01:02:29.700Z,76.85
2022-11-04T01:03:31.737Z,76.85
2022-11-04T01:04:34.909Z,76.00
2022-11-04T01:05:38.981Z,76.93
2022-11-04T01:06:41.892Z,76.99
2022-11-04T01:07:44.043Z,76.54
2022-11-04T01:08:47.974Z,77.01
2022-11-04T01:09:50.585Z,76.52
2022-11-04T01:10:53.427Z,76.27
2022-11-04T01:11:55.629Z,76.18
2022-11-04T01:12:58.522Z,76.96
2022-11-04T01:14:00.554Z,76.93
2022-11-04T01:15:03.472Z,77.24
2022-11-04T01:16:08.967Z,76.84
2022-11-04T01:17:11.851Z,77.17
2022-11-04T01:18:13.778Z,77.05
2022-11-04T01:19:17.091Z,77.02
2022-11-04T01:20:18.899Z,76.90
2022-11-04T01:21:23.137Z,77.10
2022-11-04T01:22:24.928Z,77.42
2022-11-04T01:23:27.799Z,76.74
2022-11-04T01:24:29.792Z,76.86
2022-11-04T01:25:32.788Z,76.56
2022-11-04T01:26:34.651Z,77.06
2022-11-04T01:27:37.570Z,76.63
2022-11-04T01:28:39.443Z,76.38
2022-11-04T01:29:42.391Z,76.41
2022-11-04T01:30:44.335Z,76.41
2022-11-04T01:31:47.129Z,77.28
2022-11-04T01:32:48.947Z,76.49
2022-11-04T01:33:53.651Z,76.85
2022-11-04T01:34:55.529Z,76.71
2022-11-04T01:36:00.806Z,76.22
2022-11-04T01:37:04.958Z,76.95
2022-11-04T01:38:07.172Z,76.84
2022-11-04T01:39:10.673Z,77.08
2022-11-04T01:40:12.733Z,75.66
2022-11-04T01:41:20.572Z,76.53
2022-11-04T01:42:22.944Z,75.83
2022-11-04T01:43:44.889Z,76.52
2022-11-04T01:44:52.838Z,76.31
2022-11-04T01:46:00.108Z,76.39
2022-11-04T01:47:02.041Z,75.67
2022-11-04T01:48:09.299Z,75.94
2022-11-04T01:49:25.082Z,76.18
2022-11-04T01:50:31.210Z,75.30
2022-11-04T01:51:38.030Z,75.65
2022-11-04T01:52:47.778Z,75.59
2022-11-04T01:53:54.866Z,76.20
2022-11-04T01:55:02.245Z,75.29
2022-11-04T01:56:12.072Z,74.73
2022-11-04T01:57:20.082Z,75.15
2022-11-04T01:58:25.853Z,75.83
2022-11-04T01:59:31.471Z,75.45
2022-11-04T02:00:33.375Z,74.77
2022-11-04T02:01:36.487Z,74.89
2022-11-04T02:02:46.411Z,74.56
2022-11-04T02:03:52.830Z,74.85
2022-11-04T02:04:54.666Z,74.75
2022-11-04T02:05:58.508Z,74.91
2022-11-04T02:07:05.830Z,75.44
2022-11-04T02:08:12.748Z,74.81
2022-11-04T02:09:15.742Z,75.06
2022-11-04T02:10:20.205Z,74.94
2022-11-04T02:11:40.486Z,74.48
2022-11-04T02:12:51.202Z,75.17
2022-11-04T02:13:54.169Z,74.75
2022-11-04T02:14:58.315Z,73.86
2022-11-04T02:16:12.782Z,74.12
2022-11-04T02:17:29.370Z,74.81
2022-11-04T02:18:54.893Z,73.86
2022-11-04T02:20:33.977Z,74.12
2022-11-04T02:22:09.925Z,73.81
2022-11-04T02:23:45.032Z,73.46
2022-11-04T02:25:10.491Z,74.30
2022-11-04T02:27:01.356Z,74.19
2022-11-04T02:28:34.362Z,74.17
2022-11-04T02:29:48.077Z,73.46
2022-11-04T02:30:55.806Z,74.27
2022-11-04T02:32:10.417Z,73.71
2022-11-04T02:33:22.987Z,73.29
2022-11-04T02:34:32.729Z,73.26
2022-11-04T02:35:42.881Z,73.21
2022-11-04T02:36:52.910Z,73.38
2022-11-04T02:38:05.654Z,72.59
2022-11-04T02:39:17.222Z,73.11
2022-11-04T02:40:35.984Z,74.03
2022-11-04T02:41:42.184Z,74.11
2022-11-04T02:42:53.102Z,74.26
2022-11-04T02:44:07.554Z,73.70
2022-11-04T02:45:18.845Z,72.92
2022-11-04T02:46:31.358Z,73.51
2022-11-04T02:47:38.495Z,74.23
2022-11-04T02:48:46.742Z,73.31
2022-11-04T02:49:56.415Z,73.86
2022-11-04T02:51:04.403Z,72.75
2022-11-04T02:52:10.661Z,72.69
2022-11-04T02:53:18.119Z,73.64
2022-11-04T02:54:26.722Z,72.80
2022-11-04T02:55:33.389Z,73.92
2022-11-04T02:56:42.059Z,73.26
2022-11-04T02:57:46.838Z,73.23
2022-11-04T02:58:55.984Z,72.78
2022-11-04T03:00:01.829Z,72.90
2022-11-04T03:01:08.938Z,73.39
2022-11-04T03:02:16.014Z,72.95
2022-11-04T03:03:23.484Z,72.61
2022-11-04T03:04:30.940Z,72.74
2022-11-04T03:05:36.171Z,72.64
2022-11-04T03:06:39.992Z,72.48
2022-11-04T03:07:45.093Z,72.74
2022-11-04T03:08:51.233Z,72.34
2022-11-04T03:10:00.278Z,72.27
2022-11-04T03:11:06.453Z,72.61
2022-11-04T03:12:14.872Z,73.06
2022-11-04T03:13:20.542Z,72.89
2022-11-04T03:14:28.804Z,72.76
2022-11-04T03:15:34.380Z,72.51
2022-11-04T03:16:40.972Z,71.98
2022-11-04T03:17:50.694Z,72.40
2022-11-04T03:19:01.937Z,72.48
2022-11-04T03:20:09.345Z,72.09
2022-11-04T03:21:15.114Z,72.26
2022-11-04T03:22:19.745Z,72.07
2022-11-04T03:23:22.855Z,72.25
2022-11-04T03:24:25.339Z,72.84
2022-11-04T03:25:33.197Z,72.03
2022-11-04T03:26:41.658Z,72.67
2022-11-04T03:27:51.158Z,72.41
2022-11-04T03:29:05.871Z,72.62
2022-11-04T03:30:11.823Z,72.16
2022-11-04T03:31:21.476Z,73.00
2022-11-04T03:32:35.755Z,72.45
2022-11-04T03:33:43.434Z,72.96
2022-11-04T03:34:46.390Z,71.79
2022-11-04T03:35:48.241Z,71.43
2022-11-04T03:36:51.489Z,70.29
2022-11-04T03:37:54.626Z,70.25
2022-11-04T03:38:57.549Z,69.91
2022-11-04T03:39:59.537Z,71.13
2022-11-04T03:41:05.627Z,71.89
2022-11-04T03:42:20.550Z,71.97
2022-11-04T03:43:27.709Z,71.39
2022-11-04T03:44:30.268Z,71.83
2022-11-04T03:45:33.423Z,70.40
2022-11-04T03:46:38.286Z,71.53
2022-11-04T03:47:42.743Z,71.27
2022-11-04T03:48:46.966Z,71.29
2022-11-04T03:49:51.173Z,71.10
2022-11-04T03:50:52.962Z,70.31
2022-11-04T03:51:55.802Z,70.82
2022-11-04T03:52:58.951Z,69.71
2022-11-04T03:54:02.298Z,69.91
2022-11-04T03:55:06.635Z,71.82
2022-11-04T03:56:26.148Z,71.36
2022-11-04T03:57:40.507Z,70.17
2022-11-04T03:58:50.055Z,71.62
2022-11-04T04:00:09.177Z,71.58
2022-11-04T04:01:23.746Z,71.85
2022-11-04T04:02:33.550Z,72.76
2022-11-04T04:03:42.571Z,72.42
2022-11-04T04:04:55.789Z,72.67
2022-11-04T04:06:05.426Z,71.91
2022-11-04T04:07:15.625Z,72.21
2022-11-04T04:08:27.579Z,71.13
2022-11-04T04:09:37.500Z,72.04
2022-11-04T04:10:46.998Z,72.39
2022-11-04T04:11:55.083Z,72.32
2022-11-04T04:13:01.796Z,72.42
2022-11-04T04:14:12.456Z,71.43
2022-11-04T04:15:21.860Z,71.29
2022-11-04T04:16:30.745Z,71.81
2022-11-04T04:17:37.626Z,72.09
2022-11-04T04:18:46.710Z,71.83
2022-11-04T04:19:52.754Z,72.65
2022-11-04T04:20:59.111Z,72.76
2022-11-04T04:22:07.429Z,71.76
2022-11-04T04:23:28.346Z,72.37
2022-11-04T04:24:54.075Z,71.99
2022-11-04T04:26:19.292Z,71.73
2022-11-04T04:27:33.019Z,72.25
2022-11-04T04:28:36.238Z,72.01
2022-11-04T04:29:39.841Z,72.42
2022-11-04T04:30:43.810Z,72.34
2022-11-04T04:31:52.668Z,69.90
2022-11-04T04:32:58.183Z,71.84
2022-11-04T04:34:02.634Z,71.25
2022-11-04T04:35:24.312Z,71.81
2022-11-04T04:36:28.752Z,71.85
2022-11-04T04:37:30.839Z,72.22
2022-11-04T04:38:52.424Z,72.35
2022-11-04T04:40:18.473Z,72.52
2022-11-04T04:41:47.306Z,71.81
2022-11-04T04:43:11.049Z,70.67
2022-11-04T04:44:38.645Z,71.23
2022-11-04T04:45:44.400Z,71.42
2022-11-04T04:46:49.844Z,72.25
2022-11-04T04:47:52.985Z,69.74
2022-11-04T04:48:55.037Z,70.69
2022-11-04T04:50:01.463Z,71.45
2022-11-04T04:51:04.621Z,70.57
2022-11-04T04:52:08.117Z,71.20
2022-11-04T04:53:12.144Z,70.93
2022-11-04T04:54:14.768Z,69.34
2022-11-04T04:55:18.268Z,70.37
2022-11-04T04:56:20.130Z,70.48
2022-11-04T04:57:22.932Z,70.70
2022-11-04T04:58:25.712Z,71.86
2022-11-04T04:59:27.518Z,70.80
2022-11-04T05:00:30.507Z,70.21
2022-11-04T05:01:32.670Z,71.39
2022-11-04T05:02:35.824Z,69.70
2022-11-04T05:03:42.374Z,71.15
2022-11-04T05:04:47.893Z,70.57
2022-11-04T05:05:53.776Z,70.91
2022-11-04T05:06:58.199Z,71.53
2022-11-04T05:08:06.637Z,70.82
2022-11-04T05:09:08.680Z,70.80
2022-11-04T05:10:13.606Z,71.47
2022-11-04T05:11:15.510Z,72.04
2022-11-04T05:12:19.025Z,71.47
2022-11-04T05:13:26.932Z,71.42
2022-11-04T05:14:29.319Z,71.34
2022-11-04T05:15:32.984Z,71.54
2022-11-04T05:16:40.445Z,71.61
2022-11-04T05:17:43.834Z,72.22
2022-11-04T05:18:45.663Z,71.21
2022-11-04T05:19:48.488Z,70.69
2022-11-04T05:20:51.652Z,71.00
2022-11-04T05:21:54.446Z,70.75
2022-11-04T05:22:56.447Z,71.19
2022-11-04T05:23:59.401Z,70.98
2022-11-04T05:25:01.330Z,70.93
2022-11-04T05:26:04.247Z,71.54
2022-11-04T05:27:06.278Z,70.96
2022-11-04T05:28:10.476Z,69.16
2022-11-04T05:29:12.573Z,71.07
2022-11-04T05:30:15.351Z,70.54
2022-11-04T05:31:17.364Z,72.30
2022-11-04T05:32:20.366Z,71.09
2022-11-04T05:33:22.260Z,72.52
2022-11-04T05:34:25.091Z,71.50
2022-11-04T05:35:27.014Z,72.02
2022-11-04T05:36:33.039Z,70.87
2022-11-04T05:37:34.858Z,72.34
2022-11-04T05:38:38.127Z,71.56
2022-11-04T05:39:39.979Z,70.92
2022-11-04T05:40:42.785Z,72.46
2022-11-04T05:41:44.638Z,71.58
2022-11-04T05:42:47.504Z,72.14
2022-11-04T05:43:49.279Z,72.10
2022-11-04T05:44:52.086Z,72.17
2022-11-04T05:45:54.458Z,72.36
2022-11-04T05:46:57.816Z,73.22
2022-11-04T05:48:00.824Z,72.69
2022-11-04T05:49:04.945Z,72.91
2022-11-04T05:50:07.362Z,71.81
2022-11-04T05:51:13.956Z,72.99
2022-11-04T05:52:17.122Z,72.49
2022-11-04T05:53:20.025Z,72.74
2022-11-04T05:54:21.870Z,73.12
2022-11-04T05:55:25.009Z,72.78
2022-11-04T05:56:26.853Z,72.72
2022-11-04T05:57:29.709Z,73.20
2022-11-04T05:58:31.489Z,73.42
2022-11-04T05:59:34.290Z,72.92
2022-11-04T06:00:36.253Z,72.59
2022-11-04T06:01:41.183Z,74.04
2022-11-04T06:02:43.088Z,73.49
2022-11-04T06:03:45.988Z,73.64
2022-11-04T06:04:48.768Z,72.46
2022-11-04T06:05:50.589Z,73.39
2022-11-04T06:06:53.386Z,72.70
2022-11-04T06:07:57.003Z,72.28
2022-11-04T06:09:00.154Z,73.39
2022-11-04T06:10:02.370Z,73.60
2022-11-04T06:11:06.210Z,72.47
2022-11-04T06:12:09.570Z,73.04
2022-11-04T06:13:12.345Z,73.86
2022-11-04T06:14:18.557Z,73.45
2022-11-04T06:15:21.990Z,72.99
2022-11-04T06:16:24.588Z,73.72
2022-11-04T06:17:27.562Z,73.59
2022-11-04T06:18:29.338Z,73.04
2022-11-04T06:19:32.182Z,72.95
2022-11-04T06:20:34.074Z,73.17
2022-11-04T06:21:38.251Z,73.26
2022-11-04T06:22:40.092Z,73.34
2022-11-04T06:23:45.575Z,73.57
2022-11-04T06:24:47.466Z,73.26
2022-11-04T06:25:53.686Z,72.93
2022-11-04T06:26:55.997Z,73.03
2022-11-04T06:27:58.805Z,73.93
2022-11-04T06:29:00.727Z,73.17
2022-11-04T06:30:03.970Z,73.87
2022-11-04T06:31:08.601Z,72.95
2022-11-04T06:32:13.556Z,73.67
2022-11-04T06:33:15.397Z,73.44
2022-11-04T06:34:18.455Z,74.07
2022-11-04T06:35:20.355Z,73.63
2022-11-04T06:36:23.203Z,73.82
2022-11-04T06:37:27.123Z,73.23
2022-11-04T06:38:30.581Z,74.05
2022-11-04T06:39:35.270Z,73.63
2022-11-04T06:40:37.105Z,73.43
2022-11-04T06:41:42.875Z,73.57
2022-11-04T06:42:45.129Z,73.51
2022-11-04T06:43:48.033Z,74.14
2022-11-04T06:44:50.102Z,73.77
2022-11-04T06:45:55.129Z,73.38
2022-11-04T06:46:58.342Z,74.40
2022-11-04T06:48:00.134Z,74.59
2022-11-04T06:49:03.093Z,73.62
2022-11-04T06:50:05.405Z,74.06
2022-11-04T06:51:08.255Z,73.47
2022-11-04T06:52:10.023Z,74.03
2022-11-04T06:53:13.214Z,73.43
2022-11-04T06:54:16.024Z,74.46
2022-11-04T06:55:20.349Z,74.21
2022-11-04T06:56:22.245Z,74.05
2022-11-04T06:57:25.044Z,73.44
2022-11-04T06:58:26.846Z,74.37
2022-11-04T06:59:29.735Z,73.78
2022-11-04T07:00:31.948Z,73.90
2022-11-04T07:01:37.677Z,73.94
2022-11-04T07:02:39.743Z,73.84
2022-11-04T07:03:42.844Z,74.53
2022-11-04T07:04:45.749Z,74.62
2022-11-04T07:05:47.605Z,74.37
2022-11-04T07:06:50.577Z,73.48
2022-11-04T07:07:52.507Z,74.38
2022-11-04T07:08:57.526Z,74.61
2022-11-04T07:09:59.470Z,74.50
2022-11-04T07:11:05.290Z,74.11
2022-11-04T07:12:07.175Z,73.96
2022-11-04T07:13:10.534Z,74.21
2022-11-04T07:14:13.300Z,73.83
2022-11-04T07:15:16.278Z,74.16
2022-11-04T07:16:19.057Z,74.10
2022-11-04T07:17:21.887Z,74.39
2022-11-04T07:18:23.847Z,73.38
2022-11-04T07:19:26.694Z,74.04
2022-11-04T07:20:28.643Z,73.54
2022-11-04T07:21:31.776Z,73.28
2022-11-04T07:22:33.814Z,74.50
2022-11-04T07:23:36.814Z,74.23
2022-11-04T07:24:38.706Z,74.25
2022-11-04T07:25:41.725Z,73.25
2022-11-04T07:26:45.039Z,74.21
2022-11-04T07:27:48.132Z,74.20
2022-11-04T07:28:51.100Z,74.43
2022-11-04T07:29:53.115Z,74.33
2022-11-04T07:30:57.718Z,74.03
2022-11-04T07:32:00.639Z,73.48
2022-11-04T07:33:02.616Z,73.69
2022-11-04T07:34:05.524Z,74.08
2022-11-04T07:35:07.959Z,73.88
2022-11-04T07:36:13.946Z,73.95
2022-11-04T07:37:16.136Z,74.13
2022-11-04T07:38:18.987Z,74.49
2022-11-04T07:39:20.884Z,73.55
2022-11-04T07:40:23.728Z,74.35
2022-11-04T07:41:26.709Z,74.12
2022-11-04T07:42:29.930Z,74.35
2022-11-04T07:43:32.907Z,73.45
2022-11-04T07:44:34.826Z,73.33
2022-11-04T07:45:37.815Z,73.50
2022-11-04T07:46:39.994Z,73.51
2022-11-04T07:47:42.845Z,73.73
2022-11-04T07:48:44.685Z,74.15
2022-11-04T07:49:47.832Z,73.44
2022-11-04T07:50:49.812Z,73.79
2022-11-04T07:51:52.827Z,74.26
2022-11-04T07:52:54.714Z,73.59
2022-11-04T07:53:57.768Z,73.34
2022-11-04T07:55:01.021Z,73.37
2022-11-04T07:56:04.978Z,73.77
2022-11-04T07:57:08.385Z,74.66
2022-11-04T07:58:11.604Z,73.94
2022-11-04T07:59:14.454Z,74.35
2022-11-04T08:00:17.403Z,74.01
2022-11-04T08:01:23.367Z,73.33
2022-11-04T08:02:28.744Z,74.67
2022-11-04T08:03:36.791Z,74.03
2022-11-04T08:04:38.701Z,74.48
2022-11-04T08:05:41.702Z,74.14
2022-11-04T08:06:44.857Z,74.20
2022-11-04T08:07:46.713Z,74.34
2022-11-04T08:08:49.711Z,74.39
2022-11-04T08:09:52.632Z,74.55
2022-11-04T08:10:55.123Z,73.96
2022-11-04T08:11:58.030Z,74.37
2022-11-04T08:12:59.923Z,74.34
2022-11-04T08:14:05.754Z,74.21
2022-11-04T08:15:09.780Z,74.37
2022-11-04T08:16:13.922Z,74.72
2022-11-04T08:17:17.137Z,73.86
2022-11-04T08:18:20.072Z,74.24
2022-11-04T08:19:22.918Z,73.51
2022-11-04T08:20:25.834Z,74.56
2022-11-04T08:21:29.623Z,73.79
2022-11-04T08:22:33.212Z,74.32
2022-11-04T08:23:35.260Z,74.38
2022-11-04T08:24:38.246Z,73.41
2022-11-04T08:25:40.132Z,73.64
2022-11-04T08:26:43.280Z,73.41
2022-11-04T08:27:45.464Z,74.34
2022-11-04T08:28:48.953Z,74.11
2022-11-04T08:29:54.188Z,74.44
2022-11-04T08:30:57.980Z,74.43
2022-11-04T08:32:00.845Z,73.71
2022-11-04T08:33:02.725Z,73.67
2022-11-04T08:34:06.227Z,74.26
2022-11-04T08:35:10.387Z,73.44
2022-11-04T08:36:14.882Z,73.60
2022-11-04T08:37:18.505Z,74.01
2022-11-04T08:38:21.591Z,74.40
2022-11-04T08:39:25.210Z,74.11
2022-11-04T08:40:27.093Z,73.68
2022-11-04T08:41:30.974Z,74.25
2022-11-04T08:42:32.858Z,74.38
2022-11-04T08:43:36.114Z,73.89
2022-11-04T08:44:40.339Z,74.15
2022-11-04T08:45:46.261Z,73.57
2022-11-04T08:46:49.509Z,74.43
2022-11-04T08:47:51.403Z,73.65
2022-11-04T08:48:54.474Z,73.75
2022-11-04T08:49:57.376Z,73.52
2022-11-04T08:50:59.706Z,74.44
2022-11-04T08:52:03.116Z,73.72
2022-11-04T08:53:05.614Z,74.68
2022-11-04T08:54:08.996Z,74.54
2022-11-04T08:55:11.873Z,74.29
2022-11-04T08:56:16.380Z,73.74
2022-11-04T08:57:19.436Z,74.53
2022-11-04T08:58:23.072Z,74.13
2022-11-04T08:59:26.248Z,73.52
2022-11-04T09:00:28.215Z,74.01
2022-11-04T09:01:35.816Z,74.29
2022-11-04T09:02:40.159Z,74.05
2022-11-04T09:03:43.017Z,74.41
2022-11-04T09:04:46.276Z,74.56
2022-11-04T09:05:49.258Z,73.83
2022-11-04T09:06:52.627Z,73.78
2022-11-04T09:07:56.466Z,73.96
2022-11-04T09:09:03.928Z,74.56
2022-11-04T09:10:07.888Z,74.52
2022-11-04T09:11:12.455Z,74.37
2022-11-04T09:12:16.671Z,74.26
2022-11-04T09:13:18.850Z,74.53
2022-11-04T09:14:23.823Z,73.65
2022-11-04T09:15:25.809Z,73.94
2022-11-04T09:16:29.742Z,74.12
2022-11-04T09:17:34.153Z,73.44
2022-11-04T09:18:36.299Z,74.37
2022-11-04T09:19:39.389Z,74.45
2022-11-04T09:20:42.653Z,74.30
2022-11-04T09:21:45.596Z,74.17
2022-11-04T09:22:50.355Z,73.92
2022-11-04T09:23:53.542Z,74.45
2022-11-04T09:24:55.538Z,74.39
2022-11-04T09:25:58.672Z,73.57
2022-11-04T09:27:01.746Z,74.40
2022-11-04T09:28:04.737Z,74.42
2022-11-04T09:29:09.833Z,74.74
2022-11-04T09:30:12.813Z,74.43
2022-11-04T09:31:18.461Z,73.64
2022-11-04T09:32:21.827Z,74.57
2022-11-04T09:33:25.337Z,74.73
2022-11-04T09:34:28.482Z,74.26
2022-11-04T09:35:30.684Z,74.46
2022-11-04T09:36:33.821Z,74.07
2022-11-04T09:37:36.002Z,74.59
2022-11-04T09:38:40.859Z,74.38
2022-11-04T09:39:44.020Z,73.97
2022-11-04T09:40:48.448Z,74.00
2022-11-04T09:42:04.838Z,74.27
2022-11-04T09:43:24.067Z,74.47
2022-11-04T09:44:30.337Z,74.62
2022-11-04T09:45:36.030Z,74.02
2022-11-04T09:46:40.621Z,73.75
2022-11-04T09:47:45.851Z,74.34
2022-11-04T09:48:54.070Z,73.62
2022-11-04T09:50:01.419Z,73.91
2022-11-04T09:51:12.882Z,74.49
2022-11-04T09:52:27.806Z,74.79
2022-11-04T09:53:41.764Z,74.05
2022-11-04T09:54:50.308Z,73.83
2022-11-04T09:55:58.775Z,74.61
2022-11-04T09:57:03.715Z,74.72
2022-11-04T09:58:09.254Z,74.00
2022-11-04T09:59:27.731Z,74.52
2022-11-04T10:00:40.934Z,74.26
2022-11-04T10:01:54.292Z,73.48
2022-11-04T10:03:11.767Z,73.61
2022-11-04T10:04:27.189Z,74.34
2022-11-04T10:05:41.189Z,74.72
2022-11-04T10:06:59.213Z,73.66
2022-11-04T10:08:22.255Z,74.26
2022-11-04T10:09:38.733Z,74.55
2022-11-04T10:10:50.879Z,74.43
2022-11-04T10:12:09.793Z,74.73
2022-11-04T10:13:26.098Z,74.54
2022-11-04T10:14:46.281Z,74.85
2022-11-04T10:16:09.190Z,74.24
2022-11-04T10:17:27.364Z,73.86
2022-11-04T10:18:49.420Z,74.56
2022-11-04T10:20:05.208Z,74.63
2022-11-04T10:21:17.941Z,74.24
2022-11-04T10:22:32.553Z,74.72
2022-11-04T10:23:41.406Z,74.41
2022-11-04T10:24:53.202Z,73.83
2022-11-04T10:26:05.434Z,74.56
2022-11-04T10:27:17.378Z,74.17
2022-11-04T10:28:23.226Z,74.10
2022-11-04T10:29:31.387Z,73.49
2022-11-04T10:30:35.977Z,73.66
2022-11-04T10:31:40.448Z,74.61
2022-11-04T10:32:53.071Z,73.64
2022-11-04T10:34:02.885Z,74.68
2022-11-04T10:35:17.141Z,74.55
2022-11-04T10:36:22.287Z,74.75
2022-11-04T10:37:26.552Z,74.05
2022-11-04T10:38:37.567Z,73.94
2022-11-04T10:39:45.312Z,74.12
2022-11-04T10:40:49.984Z,74.54
2022-11-04T10:41:53.884Z,74.65
2022-11-04T10:43:01.757Z,74.05
2022-11-04T10:44:07.644Z,74.98
2022-11-04T10:45:12.612Z,73.97
2022-11-04T10:46:38.139Z,73.77
2022-11-04T10:47:49.968Z,73.75
2022-11-04T10:49:00.121Z,74.58
2022-11-04T10:50:30.802Z,74.75
2022-11-04T10:51:34.825Z,73.98
2022-11-04T10:52:37.934Z,73.85
2022-11-04T10:53:41.064Z,73.72
2022-11-04T10:54:47.288Z,73.97
2022-11-04T10:56:00.735Z,74.83
2022-11-04T10:57:03.185Z,74.16
2022-11-04T10:58:17.336Z,74.39
2022-11-04T10:59:26.399Z,74.64
2022-11-04T11:00:40.799Z,74.61
2022-11-04T11:01:51.284Z,74.09
2022-11-04T11:02:53.760Z,74.61
2022-11-04T11:03:58.476Z,74.21
2022-11-04T11:05:14.572Z,73.76
2022-11-04T11:06:27.105Z,74.05
2022-11-04T11:07:37.027Z,74.46
2022-11-04T11:08:40.935Z,74.74
2022-11-04T11:09:54.090Z,73.76
2022-11-04T11:10:56.728Z,74.22
2022-11-04T11:12:09.851Z,74.25
2022-11-04T11:13:26.662Z,74.15
2022-11-04T11:14:35.962Z,74.59
2022-11-04T11:15:40.125Z,74.09
2022-11-04T11:16:45.699Z,73.62
2022-11-04T11:17:48.986Z,73.89
2022-11-04T11:19:14.438Z,73.90
2022-11-04T11:20:22.047Z,74.56
2022-11-04T11:21:26.559Z,73.80
2022-11-04T11:22:35.794Z,74.50
2022-11-04T11:23:41.885Z,73.72
2022-11-04T11:24:44.988Z,73.84
2022-11-04T11:25:50.638Z,74.61
2022-11-04T11:26:55.927Z,74.38
2022-11-04T11:28:00.473Z,74.60
2022-11-04T11:29:07.284Z,74.88
2022-11-04T11:30:21.279Z,74.37
2022-11-04T11:31:26.820Z,74.54
2022-11-04T11:32:33.034Z,74.68
2022-11-04T11:33:38.173Z,73.71
2022-11-04T11:34:45.568Z,74.48
2022-11-04T11:35:53.397Z,74.49
2022-11-04T11:36:58.796Z,73.94
2022-11-04T11:38:06.110Z,74.08
2022-11-04T11:39:17.772Z,73.92
2022-11-04T11:40:52.120Z,74.23
2022-11-04T11:42:08.059Z,74.51
2022-11-04T11:43:24.285Z,73.79
2022-11-04T11:44:31.833Z,73.96
2022-11-04T11:45:33.897Z,74.92
2022-11-04T11:46:42.048Z,74.54
2022-11-04T11:47:44.118Z,74.14
2022-11-04T11:48:52.413Z,75.08
2022-11-04T11:50:08.006Z,74.41
2022-11-04T11:51:12.731Z,75.06
2022-11-04T11:52:31.773Z,74.31
2022-11-04T11:53:38.165Z,74.51
2022-11-04T11:54:43.599Z,74.79
2022-11-04T11:55:55.150Z,74.12
2022-11-04T11:57:13.710Z,75.51
2022-11-04T12:01:29.784Z,74.74
2022-11-04T12:02:41.431Z,74.65
2022-11-04T12:09:59.793Z,74.37
2022-11-04T12:11:07.305Z,74.34
2022-11-04T12:12:25.919Z,74.87
2022-11-04T12:13:32.539Z,74.68
2022-11-04T12:14:49.553Z,74.84
2022-11-04T12:16:07.597Z,74.42
2022-11-04T12:17:26.274Z,73.88
2022-11-04T12:18:42.098Z,73.88
2022-11-04T12:20:03.924Z,73.83
2022-11-04T12:21:14.020Z,73.88
2022-11-04T12:22:27.389Z,74.75
2022-11-04T12:23:43.423Z,74.22
2022-11-04T12:24:55.343Z,73.90
2022-11-04T12:26:13.029Z,74.96
2022-11-04T12:27:26.281Z,74.78
2022-11-04T12:28:41.865Z,74.23
2022-11-04T12:30:01.434Z,74.16
2022-11-04T12:31:18.738Z,74.18
2022-11-04T12:32:30.922Z,74.90
2022-11-04T12:33:41.172Z,73.92
2022-11-04T12:35:04.428Z,74.37
2022-11-04T12:36:31.300Z,74.33
2022-11-04T12:37:43.888Z,74.96
2022-11-04T12:39:08.138Z,74.80
2022-11-04T12:40:19.783Z,74.74
2022-11-04T12:41:52.431Z,75.12
2022-11-04T12:43:11.760Z,75.06
2022-11-04T12:44:26.781Z,75.32
2022-11-04T12:45:41.749Z,75.18
2022-11-04T12:46:55.656Z,74.73
2022-11-04T12:48:04.640Z,75.31
2022-11-04T12:49:29.477Z,75.56
2022-11-04T12:50:46.869Z,74.54
2022-11-04T12:52:00.759Z,74.77
2022-11-04T12:53:31.691Z,74.94
2022-11-04T12:54:47.975Z,73.73
2022-11-04T12:56:01.475Z,74.54
2022-11-04T12:57:14.879Z,74.18
2022-11-04T12:58:31.210Z,74.99
2022-11-04T12:59:47.780Z,74.17
2022-11-04T13:00:59.706Z,74.36
2022-11-04T13:02:15.821Z,75.27
2022-11-04T13:03:22.377Z,75.53
2022-11-04T13:04:31.954Z,74.89
2022-11-04T13:05:44.000Z,75.29
2022-11-04T13:06:50.340Z,74.74
2022-11-04T13:07:56.679Z,75.47
2022-11-04T13:09:04.746Z,74.63
2022-11-04T13:10:20.082Z,74.84
2022-11-04T13:11:26.526Z,73.92
2022-11-04T13:12:36.393Z,74.91
2022-11-04T13:13:41.008Z,74.22
2022-11-04T13:14:50.685Z,74.95
2022-11-04T13:15:58.902Z,73.90
2022-11-04T13:17:06.604Z,74.94
2022-11-04T13:18:17.481Z,74.34
2022-11-04T13:19:28.612Z,74.02
2022-11-04T13:20:37.092Z,74.27
2022-11-04T13:21:39.258Z,74.21
2022-11-04T13:22:45.651Z,74.16
2022-11-04T13:23:53.145Z,74.24
2022-11-04T13:25:00.907Z,73.95
2022-11-04T13:26:06.606Z,74.60
2022-11-04T13:27:19.422Z,74.59
2022-11-04T13:28:23.230Z,74.06
2022-11-04T13:29:26.813Z,74.18
2022-11-04T13:30:37.857Z,74.64
2022-11-04T13:31:51.480Z,73.67
2022-11-04T13:33:00.491Z,74.76
2022-11-04T13:34:12.381Z,73.68
2022-11-04T13:35:22.093Z,73.94
2022-11-04T13:36:34.591Z,74.22
2022-11-04T13:37:43.052Z,73.92
2022-11-04T13:38:50.764Z,73.80
2022-11-04T13:39:58.863Z,73.66
2022-11-04T13:41:23.766Z,73.71
2022-11-04T13:43:20.825Z,73.78
2022-11-04T13:44:26.372Z,74.03
2022-11-04T13:45:29.535Z,73.82
2022-11-04T13:46:34.741Z,73.93
2022-11-04T13:47:44.006Z,74.34
2022-11-04T13:48:56.282Z,73.44
2022-11-04T13:49:59.610Z,74.35
2022-11-04T13:51:06.695Z,74.23
2022-11-04T13:52:11.694Z,74.30
2022-11-04T13:53:13.637Z,73.91
2022-11-04T13:54:31.386Z,74.26
2022-11-04T13:55:35.521Z,74.15
2022-11-04T13:56:40.819Z,74.29
2022-11-04T13:57:53.527Z,73.27
2022-11-04T13:58:58.926Z,73.89
2022-11-04T14:00:21.188Z,73.55
2022-11-04T14:01:29.858Z,74.25
2022-11-04T14:02:44.073Z,73.55
2022-11-04T14:03:53.335Z,73.75
2022-11-04T14:04:56.874Z,74.23
2022-11-04T14:06:16.315Z,73.48
2022-11-04T14:07:41.327Z,74.18
2022-11-04T14:09:29.412Z,73.42
2022-11-04T14:10:44.978Z,74.47
2022-11-04T14:12:26.310Z,73.94
2022-11-04T14:14:01.120Z,73.80
2022-11-04T14:15:11.904Z,74.00
2022-11-04T14:16:43.653Z,74.35
2022-11-04T14:18:10.583Z,73.94
2022-11-04T14:19:58.112Z,74.42
2022-11-04T14:21:07.864Z,74.17
2022-11-04T14:22:16.283Z,74.31
2022-11-04T14:23:24.783Z,73.67
2022-11-04T14:24:28.945Z,73.59
2022-11-04T14:25:35.856Z,73.45
2022-11-04T14:26:45.229Z,73.64
2022-11-04T14:27:51.855Z,74.46
2022-11-04T14:29:03.215Z,74.29
2022-11-04T14:30:07.417Z,74.28
2022-11-04T14:31:17.364Z,74.29
2022-11-04T14:32:26.305Z,74.46
2022-11-04T14:33:42.107Z,73.53
2022-11-04T14:34:44.543Z,73.75
2022-11-04T14:35:47.472Z,74.19
2022-11-04T14:36:57.553Z,73.76
2022-11-04T14:38:06.362Z,73.94
2022-11-04T14:39:24.167Z,74.07
2022-11-04T14:40:28.821Z,73.33